Time;durP1;ratioP1;P1;durP2;ratioP2;P2;SDS_P1;SDS_P2;PMS_P1;PMS_P2;Temp;Humidity;BMP_temperature;BMP_pressure;BME280_temperature;BME280_humidity;BME280_pressure;Samples;Min_cycle;Max_cycle;Signal;HPM_P1;HPM_P2
2023/01/22 00:01:18;;;;;;;36.67;21.17;;;;;;;0.06;84.04;102799.84;5115028;28;20195;-66
2023/01/22 00:03:45;;;;;;;36.57;19.17;;;;;;;0.13;83.88;102798.16;5115262;28;20268;-66
2023/01/22 00:06:12;;;;;;;36.10;21.40;;;;;;;0.19;83.78;102800.78;5115261;28;20180;-66
2023/01/22 00:08:39;;;;;;;37.47;21.00;;;;;;;0.18;82.72;102786.75;5115061;28;20223;-66
2023/01/22 00:11:05;;;;;;;35.37;20.27;;;;;;;0.24;81.63;102779.75;5115086;28;20192;-66
2023/01/22 00:13:31;;;;;;;38.10;21.20;;;;;;;0.27;81.46;102785.91;5114746;28;20638;-66
2023/01/22 00:15:59;;;;;;;33.37;20.13;;;;;;;0.22;81.75;102779.75;5114732;28;20187;-66
2023/01/22 00:18:25;;;;;;;30.67;19.67;;;;;;;0.31;81.75;102777.16;5114781;28;20226;-66
2023/01/22 00:20:54;;;;;;;36.70;20.87;;;;;;;0.34;81.22;102771.88;5114914;28;20592;-66
2023/01/22 00:23:21;;;;;;;34.80;21.20;;;;;;;0.30;80.49;102770.09;5114621;28;20621;-66
2023/01/22 00:25:47;;;;;;;34.00;21.77;;;;;;;0.34;80.44;102763.97;5115090;28;20193;-66
2023/01/22 00:28:15;;;;;;;31.43;20.50;;;;;;;0.35;81.13;102767.50;5114467;28;20257;-66
2023/01/22 00:30:42;;;;;;;32.63;21.77;;;;;;;0.29;80.00;102755.19;5115055;28;20219;-66
2023/01/22 00:33:08;;;;;;;32.90;20.23;;;;;;;0.30;80.94;102754.28;5114368;28;20225;-66
2023/01/22 00:35:35;;;;;;;33.93;21.30;;;;;;;0.32;80.86;102749.91;5113806;28;20195;-66
2023/01/22 00:38:02;;;;;;;33.27;20.70;;;;;;;0.33;79.58;102748.16;5113032;28;20217;-66
2023/01/22 00:40:29;;;;;;;37.67;21.80;;;;;;;0.33;79.46;102741.13;5113008;28;20647;-66
2023/01/22 00:42:55;;;;;;;32.23;20.87;;;;;;;0.34;80.14;102745.53;5114533;28;20647;-66
2023/01/22 00:45:22;;;;;;;34.70;20.07;;;;;;;0.36;79.99;102732.34;5114228;28;20211;-66
2023/01/22 00:47:48;;;;;;;30.07;19.67;;;;;;;0.30;80.62;102734.97;5114293;28;20282;-66
2023/01/22 00:50:15;;;;;;;33.43;21.03;;;;;;;0.32;79.51;102722.69;5114391;28;20620;-66
2023/01/22 00:52:41;;;;;;;34.53;21.17;;;;;;;0.36;80.69;102729.72;5114286;28;20190;-66
2023/01/22 00:55:08;;;;;;;34.07;21.17;;;;;;;0.45;80.36;102716.56;5114848;28;20189;-66
2023/01/22 00:57:34;;;;;;;35.03;19.93;;;;;;;0.37;80.04;102728.84;5113965;28;20208;-66
2023/01/22 01:00:01;;;;;;;36.13;20.07;;;;;;;0.35;79.98;102726.19;5095995;28;20196;-66
2023/01/22 01:02:28;;;;;;;32.23;21.27;;;;;;;0.33;79.05;102733.22;5095759;28;20189;-66
2023/01/22 01:04:55;;;;;;;27.07;19.03;;;;;;;0.40;80.39;102720.94;5114176;28;20646;-66
2023/01/22 01:07:22;;;;;;;36.00;19.97;;;;;;;0.42;78.94;102729.75;5095521;28;20574;-66
2023/01/22 01:09:49;;;;;;;30.67;19.57;;;;;;;0.33;79.26;102719.16;5113860;28;20234;-66
2023/01/22 01:12:15;;;;;;;36.60;20.67;;;;;;;0.33;80.24;102717.41;5114098;28;20181;-66
2023/01/22 01:14:42;;;;;;;32.10;20.03;;;;;;;0.33;79.41;102720.03;5095776;28;20287;-65
2023/01/22 01:17:08;;;;;;;30.27;19.77;;;;;;;0.36;78.93;102709.53;5095497;28;20189;-66
2023/01/22 01:19:35;;;;;;;29.73;18.80;;;;;;;0.32;79.11;102710.41;5114279;28;20186;-66
2023/01/22 01:22:02;;;;;;;29.73;19.13;;;;;;;0.34;79.46;102706.00;5095448;28;20203;-66
2023/01/22 01:24:28;;;;;;;26.07;19.30;;;;;;;0.37;78.73;102713.91;5096053;28;20197;-65
2023/01/22 01:26:54;;;;;;;28.70;19.33;;;;;;;0.35;79.21;102707.75;5095396;28;20288;-65
2023/01/22 01:29:21;;;;;;;28.23;19.00;;;;;;;0.30;79.95;102709.50;5113573;28;20203;-66
2023/01/22 01:31:51;;;;;;;30.63;19.47;;;;;;;0.25;79.52;102708.63;5113647;28;20346;-66
2023/01/22 01:34:18;;;;;;;28.10;17.77;;;;;;;0.24;79.18;102711.22;5113824;28;20284;-66
2023/01/22 01:36:44;;;;;;;30.30;19.77;;;;;;;0.22;80.40;102716.53;5113553;28;20199;-66
2023/01/22 01:39:14;;;;;;;26.90;19.37;;;;;;;0.28;80.27;102710.38;5113770;28;20212;-66
2023/01/22 01:41:41;;;;;;;33.73;19.90;;;;;;;0.36;79.42;102709.53;5113774;28;20551;-66
2023/01/22 01:44:15;;;;;;;28.93;20.40;;;;;;;0.37;78.34;102724.47;5113542;28;20313;-66
2023/01/22 01:46:52;;;;;;;27.63;18.43;;;;;;;0.33;78.27;102708.63;5095317;28;20681;-66
2023/01/22 01:49:27;;;;;;;28.33;17.50;;;;;;;0.33;79.38;102714.78;5117867;28;20205;-66
2023/01/22 01:51:58;;;;;;;33.70;20.13;;;;;;;0.29;79.07;102713.03;5117848;28;20252;-66
2023/01/22 01:54:26;;;;;;;29.90;18.97;;;;;;;0.29;78.74;102714.75;5099162;28;20221;-66
2023/01/22 01:57:00;;;;;;;32.10;19.50;;;;;;;0.33;78.97;102708.63;5099234;28;20199;-66
2023/01/22 01:59:26;;;;;;;28.27;18.90;;;;;;;0.32;79.48;102722.69;5099137;28;20300;-66
2023/01/22 02:01:54;;;;;;;23.90;17.90;;;;;;;0.31;78.50;102716.56;5099310;28;20200;-66
2023/01/22 02:04:22;;;;;;;29.20;18.77;;;;;;;0.35;79.03;102715.66;5117567;28;20177;-66
2023/01/22 02:06:49;;;;;;;31.27;19.03;;;;;;;0.33;78.16;102712.13;5118107;28;20550;-66
2023/01/22 02:09:15;;;;;;;26.73;18.40;;;;;;;0.34;78.54;102705.13;5117206;28;20201;-66
2023/01/22 02:11:42;;;;;;;26.57;19.00;;;;;;;0.35;79.21;102707.75;5117215;28;20185;-66
2023/01/22 02:14:19;;;;;;;29.37;17.63;;;;;;;0.31;79.46;102716.56;5099091;28;20243;-66
2023/01/22 02:16:45;;;;;;;30.67;18.57;;;;;;;0.34;78.34;102708.66;5117396;28;20193;-66
2023/01/22 02:19:11;;;;;;;28.57;19.60;;;;;;;0.38;79.00;102705.16;5117070;28;20297;-66
2023/01/22 02:21:43;;;;;;;30.03;18.57;;;;;;;0.37;79.49;102700.75;5098744;28;20228;-66
2023/01/22 02:24:15;;;;;;;26.90;19.50;;;;;;;0.34;78.21;102703.38;5116927;28;20216;-66
2023/01/22 02:26:44;;;;;;;26.57;19.07;;;;;;;0.34;78.34;102710.41;5116931;28;20282;-66
2023/01/22 02:29:15;;;;;;;25.53;18.90;;;;;;;0.35;79.07;102705.13;5098552;28;20594;-66
2023/01/22 02:31:41;;;;;;;28.17;17.67;;;;;;;0.31;79.15;102708.66;5098630;28;20196;-66
2023/01/22 02:34:08;;;;;;;29.77;18.63;;;;;;;0.33;78.63;102700.72;5116640;28;20206;-66
2023/01/22 02:36:36;;;;;;;23.00;17.00;;;;;;;0.30;78.26;102704.22;5098514;28;20212;-66
2023/01/22 02:39:03;;;;;;;28.03;17.57;;;;;;;0.30;78.42;102701.59;5098356;28;20679;-66
2023/01/22 02:41:31;;;;;;;26.30;17.23;;;;;;;0.31;78.84;102700.75;5098362;28;20222;-66
2023/01/22 02:43:58;;;;;;;28.80;16.63;;;;;;;0.36;79.06;102698.09;5098306;28;20276;-66
2023/01/22 02:46:25;;;;;;;23.80;16.77;;;;;;;0.30;78.51;102704.22;5098254;28;20201;-66
2023/01/22 02:48:51;;;;;;;19.00;15.23;;;;;;;0.27;77.94;102701.59;5098093;28;20205;-66
2023/01/22 02:51:18;;;;;;;24.93;17.27;;;;;;;0.31;77.89;102710.38;5098171;28;20200;-66
2023/01/22 02:53:47;;;;;;;18.47;15.07;;;;;;;0.25;79.04;102699.84;5098089;28;20299;-66
2023/01/22 02:56:13;;;;;;;22.33;17.30;;;;;;;0.37;78.68;102710.41;5098332;28;20280;-66
2023/01/22 02:58:40;;;;;;;23.43;15.77;;;;;;;0.31;78.97;102700.75;5097514;28;20634;-66
2023/01/22 03:01:19;;;;;;;25.03;16.30;;;;;;;0.30;78.99;102706.00;5098020;28;20189;-66
2023/01/22 03:03:48;;;;;;;21.53;15.47;;;;;;;0.25;77.82;102699.84;5097988;28;20181;-66
2023/01/22 03:06:15;;;;;;;18.07;15.50;;;;;;;0.28;78.58;102699.84;5116344;28;20709;-66
2023/01/22 03:08:42;;;;;;;20.27;16.07;;;;;;;0.30;78.10;102691.06;5116089;28;20729;-66
2023/01/22 03:11:11;;;;;;;17.87;14.93;;;;;;;0.27;79.75;102691.06;5097771;28;20281;-66
2023/01/22 03:21:56;;;;;;;21.53;16.13;;;;;;;0.18;80.20;102670.81;5097865;28;20682;-65
2023/01/22 03:24:24;;;;;;;17.90;15.67;;;;;;;0.23;79.92;102673.47;5097854;28;20202;-65
2023/01/22 03:26:51;;;;;;;20.87;17.17;;;;;;;0.22;81.57;102677.00;5097512;28;20189;-65
2023/01/22 03:29:17;;;;;;;20.93;15.37;;;;;;;0.15;80.19;102669.94;5097644;28;20223;-66
2023/01/22 03:31:47;;;;;;;22.80;15.60;;;;;;;0.17;81.00;102676.97;5097316;28;20246;-66
2023/01/22 03:34:18;;;;;;;23.43;15.67;;;;;;;0.11;81.85;102681.34;5097316;28;20203;-66
2023/01/22 03:36:45;;;;;;;20.10;15.23;;;;;;;-0.01;82.59;102666.38;5097549;28;20663;-65
2023/01/22 03:39:12;;;;;;;23.87;15.97;;;;;;;0.09;82.90;102675.19;5097113;28;20213;-66
2023/01/22 03:41:38;;;;;;;21.50;14.67;;;;;;;0.08;81.99;102673.44;5115487;28;20177;-66
2023/01/22 03:44:08;;;;;;;28.73;15.83;;;;;;;0.04;82.61;102675.16;5097948;28;20210;-66
2023/01/22 03:46:35;;;;;;;19.80;15.73;;;;;;;0.06;83.23;102685.72;5097114;28;20197;-66
2023/01/22 03:49:02;;;;;;;20.20;16.27;;;;;;;0.03;83.17;102688.34;5097011;28;20257;-66
2023/01/22 03:51:29;;;;;;;20.70;16.97;;;;;;;-0.04;83.22;102680.41;5097016;28;20203;-66
2023/01/22 03:53:57;;;;;;;24.10;17.43;;;;;;;-0.07;83.49;102685.69;5096874;28;20255;-66
2023/01/22 03:56:25;;;;;;;20.30;16.43;;;;;;;-0.12;84.53;102682.16;5097193;28;20189;-66
2023/01/22 03:58:56;;;;;;;22.43;15.77;;;;;;;-0.08;84.67;102683.03;5096880;28;20215;-66
2023/01/22 04:01:25;;;;;;;20.17;14.50;;;;;;;-0.10;84.32;102683.00;5114644;28;20193;-66
2023/01/22 04:03:53;;;;;;;18.47;15.67;;;;;;;-0.09;84.72;102683.91;5097059;28;20188;-66
2023/01/22 04:06:23;;;;;;;22.03;17.20;;;;;;;-0.12;85.09;102678.63;5097521;28;20193;-66
2023/01/22 04:08:53;;;;;;;27.57;17.53;;;;;;;-0.12;84.63;102678.63;5096655;28;20216;-66
2023/01/22 04:11:24;;;;;;;19.57;16.87;;;;;;;-0.17;84.05;102675.09;5096519;28;20555;-66
2023/01/22 04:13:53;;;;;;;22.67;17.10;;;;;;;-0.12;84.20;102678.63;5114381;28;20307;-66
2023/01/22 04:16:20;;;;;;;20.50;15.67;;;;;;;-0.11;85.31;102681.25;5096534;28;20203;-66
2023/01/22 04:19:05;;;;;;;26.53;16.73;;;;;;;-0.13;84.77;102675.09;5115261;28;20577;-66
2023/01/22 04:21:52;;;;;;;24.60;16.50;;;;;;;-0.23;85.63;102682.09;5096969;28;20189;-66
2023/01/22 04:24:18;;;;;;;20.63;15.77;;;;;;;-0.19;85.89;102680.38;5096588;28;20730;-66
2023/01/22 04:26:46;;;;;;;22.53;16.23;;;;;;;-0.15;84.97;102681.25;5096348;28;20242;-66
2023/01/22 04:29:15;;;;;;;23.40;16.33;;;;;;;-0.18;85.13;102674.22;5096264;28;20564;-66
2023/01/22 04:31:43;;;;;;;23.47;16.97;;;;;;;-0.15;85.20;102681.25;5113784;28;20192;-66
2023/01/22 04:34:46;;;;;;;25.83;16.30;;;;;;;-0.09;84.29;102683.91;5091230;28;20869;-66
2023/01/22 04:37:19;;;;;;;25.50;17.17;;;;;;;-0.12;85.44;102687.41;5096372;28;20188;-66
2023/01/22 04:39:45;;;;;;;22.17;16.57;;;;;;;-0.16;84.67;102692.66;5096421;28;20212;-66
2023/01/22 04:42:11;;;;;;;22.60;16.60;;;;;;;-0.17;84.92;102683.84;5096126;28;20249;-65
2023/01/22 04:44:38;;;;;;;21.70;16.90;;;;;;;-0.16;85.14;102696.16;5096902;28;20234;-65
2023/01/22 04:47:06;;;;;;;22.57;17.37;;;;;;;-0.16;85.35;102696.16;5095943;28;20196;-65
2023/01/22 04:49:33;;;;;;;23.63;16.60;;;;;;;-0.22;85.50;102696.13;5096243;28;20188;-66
2023/01/22 04:52:00;;;;;;;26.70;17.77;;;;;;;-0.24;85.45;102688.25;5095830;28;20272;-66
2023/01/22 04:54:28;;;;;;;20.53;15.47;;;;;;;-0.23;86.43;102691.75;5095811;28;20263;-66
2023/01/22 04:56:54;;;;;;;19.83;15.60;;;;;;;-0.15;86.42;102686.50;5113926;28;20268;-65
2023/01/22 04:59:20;;;;;;;25.87;16.27;;;;;;;-0.14;86.29;102685.66;5095720;28;20213;-66
2023/01/22 05:01:49;;;;;;;23.57;16.80;;;;;;;-0.18;85.68;102686.50;5095804;28;20224;-66
2023/01/22 05:04:17;;;;;;;16.77;14.97;;;;;;;-0.28;85.24;102683.81;5095979;28;20662;-66
2023/01/22 05:06:45;;;;;;;26.00;15.60;;;;;;;-0.28;86.78;102689.09;5096503;28;20549;-66
2023/01/22 05:09:12;;;;;;;23.50;15.43;;;;;;;-0.27;87.00;102684.69;5095584;28;20216;-66
2023/01/22 05:11:49;;;;;;;20.90;15.57;;;;;;;-0.27;86.08;102680.31;5095651;28;20665;-66
2023/01/22 05:14:16;;;;;;;21.60;15.87;;;;;;;-0.26;86.38;102679.44;5095800;28;20202;-66
2023/01/22 05:16:45;;;;;;;22.07;15.87;;;;;;;-0.17;85.62;102675.97;5095870;28;20627;-66
2023/01/22 05:19:12;;;;;;;23.57;16.43;;;;;;;-0.18;85.87;102690.00;5113963;28;20573;-66
2023/01/22 05:21:38;;;;;;;19.30;14.77;;;;;;;-0.18;86.83;102683.88;5113583;28;20211;-66
2023/01/22 05:24:07;;;;;;;23.53;16.50;;;;;;;-0.13;85.67;102682.13;5095894;28;20220;-66
2023/01/22 05:26:33;;;;;;;24.83;16.23;;;;;;;-0.14;85.05;102678.63;5096010;28;20224;-65
2023/01/22 05:29:09;;;;;;;27.47;17.17;;;;;;;-0.11;85.42;102680.41;5095942;28;20216;-66
2023/01/22 05:31:58;;;;;;;19.57;15.47;;;;;;;-0.16;85.36;102669.84;5105245;28;20296;-66
2023/01/22 05:34:29;;;;;;;21.43;16.33;;;;;;;-0.13;86.13;102675.09;5095301;28;20204;-66
2023/01/22 05:36:55;;;;;;;27.03;17.00;;;;;;;-0.18;85.19;102678.59;5095474;28;20621;-66
2023/01/22 05:39:24;;;;;;;22.30;16.17;;;;;;;-0.16;86.26;102688.28;5095482;28;20209;-66
2023/01/22 05:41:53;;;;;;;22.70;15.80;;;;;;;-0.16;86.13;102683.00;5095349;28;20199;-66
2023/01/22 05:44:19;;;;;;;20.73;14.90;;;;;;;-0.14;86.40;102685.66;5095281;28;20223;-66
2023/01/22 05:46:50;;;;;;;19.77;15.93;;;;;;;-0.19;84.90;102684.72;5095312;28;20181;-66
2023/01/22 05:49:28;;;;;;;20.87;16.60;;;;;;;-0.14;84.84;102697.06;5113798;28;20216;-66
2023/01/22 05:51:57;;;;;;;21.53;15.90;;;;;;;-0.11;85.00;102697.06;5095416;28;20253;-66
2023/01/22 05:54:23;;;;;;;20.53;15.30;;;;;;;-0.07;84.91;102695.34;5095387;28;20207;-66
2023/01/22 05:56:50;;;;;;;23.37;16.97;;;;;;;-0.03;85.43;102689.19;5095117;28;20196;-66
2023/01/22 05:59:17;;;;;;;18.43;15.57;;;;;;;-0.05;85.27;102696.19;5095060;28;20211;-66
2023/01/22 06:01:50;;;;;;;19.83;15.33;;;;;;;-0.07;85.01;102690.94;5095514;28;20220;-65
2023/01/22 06:04:17;;;;;;;19.50;15.20;;;;;;;-0.04;85.46;102688.31;5095112;28;20188;-65
2023/01/22 06:06:43;;;;;;;19.03;15.57;;;;;;;-0.08;84.16;102685.66;5095337;28;20236;-65
2023/01/22 06:09:11;;;;;;;22.07;16.17;;;;;;;-0.07;84.51;102683.06;5094982;28;20608;-66
2023/01/22 06:11:39;;;;;;;18.43;15.13;;;;;;;-0.09;84.86;102691.81;5094914;28;20193;-65
2023/01/22 06:14:06;;;;;;;18.30;14.77;;;;;;;-0.06;84.20;102691.81;5112135;28;20206;-65
2023/01/22 06:16:33;;;;;;;18.77;15.70;;;;;;;-0.05;84.13;102683.94;5095024;28;20228;-65
2023/01/22 06:19:11;;;;;;;18.97;15.70;;;;;;;-0.05;85.14;102689.22;5094976;28;20216;-66
2023/01/22 06:21:49;;;;;;;21.20;15.63;;;;;;;-0.11;85.28;102691.78;5094850;28;20647;-66
2023/01/22 06:24:16;;;;;;;15.90;13.80;;;;;;;-0.04;84.53;102695.34;5095620;28;20193;-66
2023/01/22 06:26:43;;;;;;;18.47;14.97;;;;;;;-0.08;84.42;102686.53;5094845;28;20200;-66
2023/01/22 06:29:12;;;;;;;23.67;16.13;;;;;;;-0.03;84.22;102690.06;5094806;28;20211;-66
2023/01/22 06:31:39;;;;;;;19.67;15.60;;;;;;;-0.05;85.53;102689.22;5095115;28;20189;-66
2023/01/22 06:34:07;;;;;;;18.00;14.57;;;;;;;-0.04;84.54;102697.97;5096999;28;20644;-66
2023/01/22 06:36:34;;;;;;;18.20;14.47;;;;;;;-0.01;84.69;102695.34;5098727;28;20245;-66
2023/01/22 06:39:01;;;;;;;21.63;16.10;;;;;;;0.01;83.95;102701.50;5098407;28;20223;-66
2023/01/22 06:41:38;;;;;;;15.77;14.13;;;;;;;0.04;84.58;102705.91;5098697;28;20654;-66
2023/01/22 06:44:08;;;;;;;18.80;16.13;;;;;;;-0.04;85.25;102697.97;5098762;28;20216;-66
2023/01/22 06:46:35;;;;;;;19.67;15.53;;;;;;;-0.09;84.28;102697.09;5098285;28;20207;-66
2023/01/22 06:49:05;;;;;;;19.77;14.17;;;;;;;-0.07;85.03;102700.59;5115414;28;20208;-66
2023/01/22 06:51:31;;;;;;;17.30;14.90;;;;;;;-0.05;85.06;102705.00;5098413;28;20185;-66
2023/01/22 06:53:58;;;;;;;19.23;15.33;;;;;;;-0.01;84.90;102705.88;5098107;28;20199;-66
2023/01/22 06:56:26;;;;;;;22.60;14.23;;;;;;;-0.06;85.43;102705.00;5098855;28;20370;-66
2023/01/22 06:58:54;;;;;;;20.80;14.43;;;;;;;-0.04;84.68;102701.47;5098001;28;20657;-66
2023/01/22 07:01:21;;;;;;;16.53;14.73;;;;;;;-0.10;84.66;102711.97;5116565;28;20177;-65
2023/01/22 07:03:47;;;;;;;18.53;14.40;;;;;;;-0.17;84.81;102704.06;5116480;28;20196;-65
2023/01/22 07:06:17;;;;;;;21.60;15.30;;;;;;;-0.19;86.25;102711.06;5116208;28;20189;-65
2023/01/22 07:08:44;;;;;;;16.93;13.90;;;;;;;-0.18;85.17;102707.56;5116042;28;20282;-65
2023/01/22 07:11:10;;;;;;;17.63;13.83;;;;;;;-0.15;85.31;102718.97;5116305;28;20661;-65
2023/01/22 07:13:37;;;;;;;20.87;14.80;;;;;;;-0.15;85.87;102716.34;5116611;28;20192;-65
2023/01/22 07:16:04;;;;;;;18.47;13.70;;;;;;;-0.18;86.40;102716.34;5116244;28;20196;-66
2023/01/22 07:18:30;;;;;;;16.77;14.00;;;;;;;-0.14;85.28;102718.13;5115932;28;20555;-66
2023/01/22 07:21:02;;;;;;;18.60;15.07;;;;;;;-0.13;85.56;102726.91;5115915;28;20276;-66
2023/01/22 07:23:29;;;;;;;18.13;15.20;;;;;;;-0.07;85.71;102722.56;5115904;28;20196;-66
2023/01/22 07:25:56;;;;;;;15.60;13.07;;;;;;;-0.15;86.32;102723.38;5115772;28;20188;-65
2023/01/22 07:28:23;;;;;;;15.60;13.63;;;;;;;-0.15;85.69;102728.63;5115702;28;20207;-66
2023/01/22 07:30:49;;;;;;;15.63;14.03;;;;;;;-0.09;85.39;102733.94;5115734;28;20183;-66
2023/01/22 07:33:17;;;;;;;19.00;14.07;;;;;;;-0.15;86.20;102729.50;5115965;28;20565;-66
2023/01/22 07:35:52;;;;;;;15.33;13.93;;;;;;;-0.13;87.20;102737.44;5115743;28;20669;-66
2023/01/22 07:38:18;;;;;;;16.83;13.57;;;;;;;-0.16;87.21;102738.28;5115724;28;20214;-66
2023/01/22 07:40:44;;;;;;;16.40;13.90;;;;;;;-0.16;86.10;102740.94;5115537;28;20681;-66
2023/01/22 07:43:13;;;;;;;16.27;14.50;;;;;;;-0.13;86.93;102743.56;5115763;28;20195;-66
2023/01/22 07:45:40;;;;;;;17.00;14.67;;;;;;;-0.14;86.54;102756.75;5115919;28;20560;-66
2023/01/22 07:48:09;;;;;;;17.60;12.87;;;;;;;-0.09;86.25;102763.78;5115550;28;20558;-66
2023/01/22 07:50:38;;;;;;;15.73;13.10;;;;;;;-0.13;86.61;102758.50;5115378;28;20205;-66
2023/01/22 07:53:06;;;;;;;15.57;13.90;;;;;;;-0.08;86.97;102757.63;5115300;28;20195;-66
2023/01/22 07:55:32;;;;;;;16.50;13.77;;;;;;;-0.11;86.73;102754.13;5115484;28;20194;-66
2023/01/22 07:58:02;;;;;;;15.20;13.70;;;;;;;-0.10;86.36;102756.75;5115083;28;20303;-66
2023/01/22 08:00:29;;;;;;;16.93;13.10;;;;;;;-0.02;86.93;102757.69;5115142;28;20265;-66
2023/01/22 08:02:55;;;;;;;15.10;13.60;;;;;;;-0.06;87.05;102753.25;5115116;28;20199;-65
2023/01/22 08:05:22;;;;;;;12.30;11.10;;;;;;;0.01;86.14;102766.47;5115532;28;20191;-65
2023/01/22 08:07:48;;;;;;;15.93;14.07;;;;;;;0.02;87.51;102757.69;5114841;28;20295;-66
2023/01/22 08:10:15;;;;;;;17.80;13.17;;;;;;;-0.04;86.56;102766.44;5114942;28;20252;-66
2023/01/22 08:12:42;;;;;;;16.67;13.30;;;;;;;-0.04;86.16;102759.41;5115426;28;20211;-66
2023/01/22 08:15:12;;;;;;;14.80;13.30;;;;;;;-0.01;86.86;102763.81;5114974;28;20601;-66
2023/01/22 08:17:39;;;;;;;20.27;13.33;;;;;;;-0.05;87.32;102762.03;5114694;28;20613;-66
2023/01/22 08:20:07;;;;;;;14.73;13.20;;;;;;;0.03;87.72;102765.59;5114996;28;20611;-66
2023/01/22 08:22:33;;;;;;;15.00;13.37;;;;;;;0.07;87.23;102761.22;5114569;28;20216;-66
2023/01/22 08:25:00;;;;;;;14.60;13.10;;;;;;;0.06;86.86;102762.09;5114985;28;20541;-66
2023/01/22 08:27:26;;;;;;;14.17;12.67;;;;;;;0.13;86.69;102766.53;5114810;28;20194;-66
2023/01/22 08:29:52;;;;;;;15.00;13.50;;;;;;;0.13;85.83;102767.41;5114581;28;20677;-66
2023/01/22 08:32:19;;;;;;;16.53;14.03;;;;;;;0.08;87.40;102766.50;5114758;28;20647;-66
2023/01/22 08:34:45;;;;;;;15.27;13.43;;;;;;;0.10;86.01;102772.66;5114406;28;20238;-66
2023/01/22 08:37:12;;;;;;;17.77;14.40;;;;;;;0.07;86.59;102769.13;5114725;28;20207;-66
2023/01/22 08:39:38;;;;;;;16.30;12.77;;;;;;;0.09;85.83;102768.25;5114690;28;20373;-66
2023/01/22 08:42:04;;;;;;;19.13;13.37;;;;;;;0.12;85.99;102768.28;5114900;28;20184;-66
2023/01/22 08:44:31;;;;;;;21.17;14.10;;;;;;;0.07;86.79;102770.00;5114289;28;20674;-66
2023/01/22 08:46:57;;;;;;;16.20;14.30;;;;;;;0.11;87.39;102770.91;5114417;28;20682;-66
2023/01/22 08:49:24;;;;;;;17.33;14.70;;;;;;;0.11;87.06;102766.50;5114127;28;20208;-66
2023/01/22 08:51:50;;;;;;;15.30;13.63;;;;;;;0.12;85.96;102770.03;5114178;28;20216;-66
2023/01/22 08:54:17;;;;;;;19.07;13.03;;;;;;;0.13;86.17;102769.16;5114105;28;20226;-66
2023/01/22 08:56:43;;;;;;;17.83;13.30;;;;;;;0.14;86.98;102766.53;5113864;28;20292;-66
2023/01/22 08:59:10;;;;;;;17.00;14.77;;;;;;;0.19;86.21;102772.72;5113970;28;20299;-66
2023/01/22 09:01:36;;;;;;;17.40;13.47;;;;;;;0.11;86.10;102768.28;5114250;28;20569;-66
2023/01/22 09:04:08;;;;;;;19.53;15.87;;;;;;;0.16;87.03;102771.81;5113997;28;20189;-66
2023/01/22 09:06:36;;;;;;;15.37;13.87;;;;;;;0.17;85.83;102774.47;5114277;28;20174;-66
2023/01/22 09:09:03;;;;;;;17.30;14.97;;;;;;;0.17;85.86;102766.56;5113829;28;20604;-66
2023/01/22 09:11:30;;;;;;;18.77;14.57;;;;;;;0.31;85.87;102768.34;5114127;28;20272;-66
2023/01/22 09:13:57;;;;;;;14.27;12.87;;;;;;;0.30;87.16;102766.59;5114463;28;20221;-66
2023/01/22 09:16:24;;;;;;;16.63;14.60;;;;;;;0.24;86.68;102769.19;5113964;28;20205;-66
2023/01/22 09:18:52;;;;;;;19.33;15.33;;;;;;;0.28;85.75;102777.13;5113671;28;20266;-66
2023/01/22 09:21:18;;;;;;;16.20;14.50;;;;;;;0.29;86.30;102771.00;5114197;28;20542;-66
2023/01/22 09:23:45;;;;;;;18.70;14.90;;;;;;;0.33;87.16;102771.88;5113716;28;20659;-66
2023/01/22 09:26:11;;;;;;;16.47;14.47;;;;;;;0.29;86.22;102773.63;5113709;28;20187;-67
2023/01/22 09:28:38;;;;;;;18.80;14.17;;;;;;;0.36;86.15;102778.06;5113857;28;20209;-66
2023/01/22 09:31:04;;;;;;;14.43;13.17;;;;;;;0.35;86.76;102772.75;5113937;28;20585;-66
2023/01/22 09:33:30;;;;;;;20.60;13.60;;;;;;;0.35;86.11;102778.03;5113627;28;20659;-66
2023/01/22 09:36:11;;;;;;;15.90;13.90;;;;;;;0.39;86.67;102785.09;5113455;28;20292;-66
2023/01/22 09:38:38;;;;;;;15.23;13.60;;;;;;;0.40;85.78;102785.06;5113749;28;20208;-66
2023/01/22 09:41:33;;;;;;;18.17;14.33;;;;;;;0.47;86.52;102780.72;5113561;28;20189;-66
2023/01/22 09:44:08;;;;;;;18.20;14.23;;;;;;;0.47;86.50;102785.97;5113825;28;20623;-66
2023/01/22 09:46:43;;;;;;;17.30;13.87;;;;;;;0.42;85.75;102780.69;5114112;28;20177;-66
2023/01/22 09:49:31;;;;;;;16.23;13.30;;;;;;;0.41;86.00;102778.06;5113718;28;20232;-66
2023/01/22 09:51:59;;;;;;;14.23;12.57;;;;;;;0.45;86.74;102786.84;5114210;28;20165;-66
2023/01/22 09:54:28;;;;;;;16.23;13.70;;;;;;;0.47;86.25;102791.25;5113661;28;20277;-66
2023/01/22 09:57:00;;;;;;;15.80;13.73;;;;;;;0.48;85.35;102790.41;5113912;28;20197;-66
2023/01/22 09:59:34;;;;;;;18.67;14.43;;;;;;;0.47;86.41;102790.38;5113431;28;20197;-66
2023/01/22 10:02:20;;;;;;;14.30;12.93;;;;;;;0.49;86.08;102783.38;5113961;28;20177;-66
2023/01/22 10:04:51;;;;;;;15.07;13.03;;;;;;;0.51;85.62;102786.88;5113852;28;20180;-66
2023/01/22 10:07:31;;;;;;;15.63;13.47;;;;;;;0.52;85.75;102788.63;5113835;28;20260;-66
2023/01/22 10:10:02;;;;;;;18.17;12.97;;;;;;;0.53;85.61;102782.50;5117441;28;20172;-66
2023/01/22 10:12:29;;;;;;;14.57;13.03;;;;;;;0.57;86.66;102768.44;5117818;28;20166;-66
2023/01/22 10:14:55;;;;;;;17.73;14.00;;;;;;;0.56;87.04;102782.50;5117506;28;20247;-66
2023/01/22 10:17:27;;;;;;;20.13;13.80;;;;;;;0.58;86.11;102775.50;5117026;28;20671;-66
2023/01/22 10:19:58;;;;;;;17.60;13.80;;;;;;;0.56;86.33;102778.09;5117474;28;20570;-66
2023/01/22 10:22:26;;;;;;;15.20;13.60;;;;;;;0.56;86.30;102778.09;5117137;28;20177;-66
2023/01/22 10:24:52;;;;;;;16.63;13.07;;;;;;;0.62;86.59;102782.50;5117074;28;20205;-66
2023/01/22 10:27:23;;;;;;;14.97;13.37;;;;;;;0.58;85.99;102770.22;5117206;28;20230;-66
2023/01/22 10:30:06;;;;;;;20.17;14.30;;;;;;;0.54;86.37;102782.50;5117739;28;20178;-66
2023/01/22 10:32:32;;;;;;;15.47;13.97;;;;;;;0.58;86.56;102775.50;5116984;28;20184;-66
2023/01/22 10:35:19;;;;;;;13.93;12.50;;;;;;;0.58;86.33;102768.44;5116812;28;20193;-66
2023/01/22 10:37:54;;;;;;;18.40;14.77;;;;;;;0.60;86.77;102768.47;5117307;28;20215;-66
2023/01/22 10:40:36;;;;;;;17.87;13.97;;;;;;;0.62;86.75;102764.97;5116973;28;20189;-66
2023/01/22 10:43:05;;;;;;;16.23;13.73;;;;;;;0.63;86.89;102766.72;5117262;28;20260;-66
2023/01/22 10:45:31;;;;;;;15.47;13.37;;;;;;;0.62;85.30;102767.59;5116603;28;20187;-66
2023/01/22 10:48:14;;;;;;;14.17;12.73;;;;;;;0.65;86.42;102758.81;5116632;28;20204;-66
2023/01/22 10:50:42;;;;;;;18.27;13.43;;;;;;;0.64;86.76;102764.94;5117079;28;20178;-66
2023/01/22 10:53:30;;;;;;;15.33;13.73;;;;;;;0.64;86.91;102765.81;5098873;28;20267;-66
2023/01/22 10:55:58;;;;;;;18.30;13.63;;;;;;;0.72;85.65;102765.84;5116332;28;20213;-66
2023/01/22 10:58:33;;;;;;;16.23;14.63;;;;;;;0.66;86.71;102764.97;5116473;28;20209;-66
2023/01/22 11:01:20;;;;;;;15.87;14.20;;;;;;;0.68;86.21;102766.72;5116806;28;20186;-66
2023/01/22 11:03:46;;;;;;;16.73;15.00;;;;;;;0.71;86.56;102765.84;5116169;28;20177;-66
2023/01/22 11:06:21;;;;;;;16.70;14.77;;;;;;;0.72;85.09;102760.59;5116129;28;20177;-66
2023/01/22 11:08:52;;;;;;;17.13;14.43;;;;;;;0.73;85.77;102759.69;5116505;28;20209;-66
2023/01/22 11:11:25;;;;;;;16.73;14.33;;;;;;;0.69;85.27;102755.28;5116304;28;20550;-66
2023/01/22 11:14:00;;;;;;;15.93;14.03;;;;;;;0.64;85.80;102749.13;5116103;28;20191;-66
2023/01/22 11:16:30;;;;;;;18.00;13.70;;;;;;;0.66;85.34;102754.41;5115974;28;20197;-66
2023/01/22 11:19:01;;;;;;;16.93;14.10;;;;;;;0.60;85.51;102755.28;5115431;28;20207;-66
2023/01/22 11:21:32;;;;;;;16.90;13.87;;;;;;;0.57;85.92;102755.25;5116212;28;20543;-66
2023/01/22 11:24:12;;;;;;;16.27;14.63;;;;;;;0.64;86.72;102755.28;5115873;28;20216;-66
2023/01/22 11:27:03;;;;;;;14.50;12.80;;;;;;;0.64;86.54;102755.28;5116135;28;20169;-66
2023/01/22 11:29:47;;;;;;;17.63;14.30;;;;;;;0.71;86.09;102748.25;5115752;28;20556;-66
2023/01/22 11:32:16;;;;;;;20.87;14.60;;;;;;;0.67;85.89;102754.44;5116011;28;20182;-66